createdAt,value
2023-02-08T00:01:46.370Z,80.34
2023-02-08T00:04:12.852Z,80.42
2023-02-08T00:06:39.453Z,80.02
2023-02-08T00:09:07.136Z,80.46
2023-02-08T00:11:34.826Z,80.11
2023-02-08T00:14:01.314Z,80.38
2023-02-08T00:16:27.789Z,80.51
2023-02-08T00:18:54.293Z,80.55
2023-02-08T00:21:20.786Z,80.66
2023-02-08T00:23:47.316Z,80.69
2023-02-08T00:26:14.777Z,81.00
2023-02-08T00:28:41.280Z,80.36
2023-02-08T00:31:08.175Z,80.71
2023-02-08T00:33:34.965Z,80.48
2023-02-08T00:36:02.498Z,80.43
2023-02-08T00:38:29.378Z,80.70
2023-02-08T00:40:56.113Z,80.44
2023-02-08T00:43:22.799Z,80.48
2023-02-08T00:45:55.233Z,80.71
2023-02-08T00:48:21.871Z,80.96
2023-02-08T00:51:01.940Z,80.73
2023-02-08T00:53:28.510Z,80.81
2023-02-08T00:55:55.992Z,80.95
2023-02-08T00:58:23.241Z,81.13
2023-02-08T01:00:54.004Z,81.25
2023-02-08T01:03:22.014Z,81.50
2023-02-08T01:05:48.481Z,81.61
2023-02-08T01:08:14.997Z,81.59
2023-02-08T01:10:42.042Z,81.78
2023-02-08T01:13:09.852Z,81.85
2023-02-08T01:15:36.537Z,81.93
2023-02-08T01:18:03.599Z,82.10
2023-02-08T01:20:30.221Z,81.68
2023-02-08T01:22:56.966Z,82.08
2023-02-08T01:25:23.442Z,81.83
2023-02-08T01:27:50.064Z,81.78
2023-02-08T01:30:17.635Z,81.90
2023-02-08T01:32:44.197Z,81.92
2023-02-08T01:35:10.731Z,82.08
2023-02-08T01:37:37.204Z,81.82
2023-02-08T01:40:03.852Z,81.81
2023-02-08T01:42:30.367Z,81.97
2023-02-08T01:45:15.601Z,82.12
2023-02-08T01:47:42.951Z,81.67
2023-02-08T01:50:10.014Z,81.94
2023-02-08T01:52:36.807Z,82.02
2023-02-08T01:55:09.427Z,81.87
2023-02-08T01:57:35.927Z,82.41
2023-02-08T02:00:09.072Z,82.32
2023-02-08T02:02:36.534Z,82.14
2023-02-08T02:05:03.286Z,82.22
2023-02-08T02:07:30.202Z,81.99
2023-02-08T02:10:01.867Z,81.98
2023-02-08T02:12:30.257Z,81.77
2023-02-08T02:14:56.778Z,81.70
2023-02-08T02:17:23.286Z,81.59
2023-02-08T02:19:49.619Z,81.46
2023-02-08T02:22:46.680Z,81.09
2023-02-08T02:25:28.395Z,81.21
2023-02-08T02:28:32.294Z,80.97
2023-02-08T02:31:30.500Z,81.10
2023-02-08T02:34:09.509Z,81.21
2023-02-08T02:37:02.263Z,81.49
2023-02-08T02:39:55.516Z,80.90
2023-02-08T02:42:49.833Z,81.08
2023-02-08T02:45:28.233Z,81.11
2023-02-08T02:48:17.390Z,81.58
2023-02-08T02:50:46.638Z,81.27
2023-02-08T02:53:33.369Z,81.74
2023-02-08T02:56:04.396Z,81.68
2023-02-08T02:58:31.465Z,81.76
2023-02-08T03:00:58.800Z,81.62
2023-02-08T03:03:27.593Z,81.98
2023-02-08T03:05:58.790Z,82.06
2023-02-08T03:08:44.025Z,82.13
2023-02-08T03:11:16.742Z,82.24
2023-02-08T03:13:51.457Z,82.51
2023-02-08T03:16:21.315Z,82.33
2023-02-08T03:19:02.338Z,82.55
2023-02-08T03:21:39.115Z,82.79
2023-02-08T03:24:28.683Z,82.75
2023-02-08T03:27:13.342Z,82.67
2023-02-08T03:30:11.035Z,82.69
2023-02-08T03:32:55.161Z,82.61
2023-02-08T03:35:32.865Z,82.75
2023-02-08T03:38:16.251Z,82.21
2023-02-08T03:40:48.201Z,82.40
2023-02-08T03:43:22.032Z,82.26
2023-02-08T03:45:52.102Z,82.47
2023-02-08T03:48:19.128Z,82.36
2023-02-08T03:50:49.643Z,82.49
2023-02-08T03:53:19.371Z,82.54
2023-02-08T03:55:47.058Z,82.81
2023-02-08T03:58:22.228Z,82.83
2023-02-08T04:00:56.055Z,83.18
2023-02-08T04:03:29.772Z,83.19
2023-02-08T04:05:56.429Z,83.20
2023-02-08T04:08:23.058Z,83.34
2023-02-08T04:10:49.630Z,83.28
2023-02-08T04:13:16.057Z,83.10
2023-02-08T04:15:44.214Z,83.21
2023-02-08T04:18:10.875Z,83.40
2023-02-08T04:20:37.306Z,83.05
2023-02-08T04:23:03.713Z,83.40
2023-02-08T04:25:30.176Z,83.05
2023-02-08T04:27:56.658Z,82.94
2023-02-08T04:30:23.100Z,83.03
2023-02-08T04:32:49.537Z,83.09
2023-02-08T04:35:15.955Z,82.87
2023-02-08T04:37:42.376Z,83.18
2023-02-08T04:40:09.443Z,82.79
2023-02-08T04:42:35.922Z,83.13
2023-02-08T04:45:02.340Z,82.94
2023-02-08T04:47:28.754Z,82.85
2023-02-08T04:49:55.196Z,82.96
2023-02-08T04:52:21.732Z,82.84
2023-02-08T04:54:48.150Z,82.62
2023-02-08T04:57:15.024Z,82.47
2023-02-08T04:59:41.474Z,82.40
2023-02-08T05:02:07.956Z,82.38
2023-02-08T05:04:34.532Z,82.34
2023-02-08T05:07:01.088Z,82.43
2023-02-08T05:09:27.602Z,82.29
2023-02-08T05:11:54.098Z,81.92
2023-02-08T05:14:20.597Z,81.60
2023-02-08T05:16:47.030Z,81.65
2023-02-08T05:19:13.526Z,81.77
2023-02-08T05:21:39.962Z,81.35
2023-02-08T05:24:07.199Z,81.35
2023-02-08T05:26:33.721Z,81.07
2023-02-08T05:29:00.217Z,80.84
2023-02-08T05:31:26.786Z,80.87
2023-02-08T05:33:53.463Z,80.58
2023-02-08T05:36:20.655Z,80.85
2023-02-08T05:38:47.179Z,80.85
2023-02-08T05:41:13.615Z,80.78
2023-02-08T05:43:40.041Z,80.38
2023-02-08T05:46:06.518Z,80.21
2023-02-08T05:48:33.226Z,80.35
2023-02-08T05:51:00.504Z,80.37
2023-02-08T05:53:27.377Z,79.82
2023-02-08T05:55:53.792Z,80.09
2023-02-08T05:58:20.218Z,79.85
2023-02-08T06:00:47.076Z,79.89
2023-02-08T06:03:13.691Z,79.59
2023-02-08T06:05:40.806Z,79.58
2023-02-08T06:08:07.778Z,79.43
2023-02-08T06:10:34.584Z,79.43
2023-02-08T06:13:01.589Z,79.15
2023-02-08T06:15:28.334Z,79.13
2023-02-08T06:17:54.941Z,79.46
2023-02-08T06:20:21.357Z,79.23
2023-02-08T06:22:47.828Z,79.26
2023-02-08T06:25:14.358Z,79.24
2023-02-08T06:27:40.836Z,79.14
2023-02-08T06:30:07.464Z,78.91
2023-02-08T06:32:33.934Z,78.79
2023-02-08T06:35:00.385Z,78.63
2023-02-08T06:37:26.857Z,78.78
2023-02-08T06:39:53.296Z,78.72
2023-02-08T06:42:19.722Z,78.69
2023-02-08T06:44:54.690Z,78.13
2023-02-08T06:47:22.754Z,78.25
2023-02-08T06:49:49.205Z,78.28
2023-02-08T06:52:15.632Z,78.33
2023-02-08T06:54:42.059Z,78.21
2023-02-08T06:57:08.646Z,78.10
2023-02-08T06:59:37.276Z,78.11
2023-02-08T07:02:03.867Z,77.89
2023-02-08T07:04:30.403Z,77.79
2023-02-08T07:06:56.944Z,78.11
2023-02-08T07:09:23.429Z,78.14
2023-02-08T07:11:49.828Z,78.06
2023-02-08T07:14:16.292Z,78.23
2023-02-08T07:16:42.728Z,78.03
2023-02-08T07:19:09.191Z,77.89
2023-02-08T07:21:35.661Z,78.33
2023-02-08T07:24:02.142Z,78.42
2023-02-08T07:26:28.537Z,78.06
2023-02-08T07:28:54.949Z,78.34
2023-02-08T07:31:21.442Z,78.69
2023-02-08T07:33:47.925Z,78.52
2023-02-08T07:36:14.349Z,78.23
2023-02-08T07:38:40.834Z,78.35
2023-02-08T07:41:12.960Z,78.64
2023-02-08T07:43:40.367Z,78.50
2023-02-08T07:46:16.915Z,78.49
2023-02-08T07:48:43.493Z,78.25
2023-02-08T07:51:10.617Z,78.44
2023-02-08T07:53:37.084Z,78.24
2023-02-08T07:56:03.727Z,78.15
2023-02-08T07:58:30.289Z,78.26
2023-02-08T08:00:56.768Z,78.42
2023-02-08T08:03:23.172Z,78.57
2023-02-08T08:05:52.577Z,78.19
2023-02-08T08:08:20.143Z,78.37
2023-02-08T08:10:46.606Z,78.54
2023-02-08T08:13:13.775Z,78.20
2023-02-08T08:15:40.734Z,78.37
2023-02-08T08:18:07.677Z,78.33
2023-02-08T08:20:34.172Z,78.57
2023-02-08T08:23:00.983Z,78.75
2023-02-08T08:25:27.568Z,78.56
2023-02-08T08:27:54.381Z,78.83
2023-02-08T08:30:21.809Z,78.72
2023-02-08T08:32:48.289Z,78.73
2023-02-08T08:35:14.781Z,79.29
2023-02-08T08:37:41.248Z,79.14
2023-02-08T08:40:08.756Z,79.16
2023-02-08T08:42:36.365Z,78.71
2023-02-08T08:45:03.958Z,78.96
2023-02-08T08:47:30.763Z,79.11
2023-02-08T08:49:57.219Z,79.06
2023-02-08T08:52:23.789Z,79.09
2023-02-08T08:54:50.252Z,79.01
2023-02-08T08:57:17.174Z,79.08
2023-02-08T08:59:43.612Z,78.63
2023-02-08T09:02:12.778Z,78.90
2023-02-08T09:04:41.008Z,79.27
2023-02-08T09:07:08.539Z,79.44
2023-02-08T09:09:35.394Z,79.47
2023-02-08T09:12:02.815Z,79.67
2023-02-08T09:14:29.269Z,79.38
2023-02-08T09:16:55.683Z,79.73
2023-02-08T09:19:22.095Z,79.39
2023-02-08T09:21:48.568Z,79.32
2023-02-08T09:24:16.080Z,79.47
2023-02-08T09:26:42.520Z,79.10
2023-02-08T09:29:08.922Z,79.36
2023-02-08T09:31:37.751Z,78.86
2023-02-08T09:34:05.475Z,79.32
2023-02-08T09:36:34.182Z,79.30
2023-02-08T09:39:24.324Z,79.69
2023-02-08T09:42:19.516Z,79.12
2023-02-08T09:45:08.405Z,78.91
2023-02-08T09:47:36.539Z,78.93
2023-02-08T09:50:31.698Z,78.63
2023-02-08T09:53:06.583Z,79.24
2023-02-08T09:55:51.935Z,78.82
2023-02-08T09:58:29.623Z,78.74
2023-02-08T10:00:56.502Z,79.08
2023-02-08T10:03:41.529Z,78.81
2023-02-08T10:06:10.625Z,79.26
2023-02-08T10:08:37.224Z,79.47
2023-02-08T10:11:29.383Z,79.35
2023-02-08T10:14:26.780Z,78.99
2023-02-08T10:17:26.625Z,78.98
2023-02-08T10:20:35.159Z,79.67
2023-02-08T10:23:04.651Z,79.31
2023-02-08T10:26:00.161Z,79.68
2023-02-08T10:28:32.708Z,79.72
2023-02-08T10:31:17.986Z,78.91
2023-02-08T10:34:06.174Z,78.57
2023-02-08T10:36:41.832Z,78.66
2023-02-08T10:39:23.909Z,78.62
2023-02-08T10:41:51.243Z,78.66
2023-02-08T10:44:31.866Z,78.37
2023-02-08T10:47:19.668Z,78.92
2023-02-08T10:50:00.247Z,78.81
2023-02-08T10:52:27.262Z,78.41
2023-02-08T10:54:54.574Z,78.58
2023-02-08T10:57:24.298Z,78.34
2023-02-08T11:00:01.455Z,78.33
2023-02-08T11:02:38.433Z,78.66
2023-02-08T11:05:40.531Z,78.72
2023-02-08T11:08:09.869Z,78.73
2023-02-08T11:10:37.697Z,78.24
2023-02-08T11:13:13.172Z,78.67
2023-02-08T11:15:52.531Z,78.14
2023-02-08T11:18:27.728Z,78.61
2023-02-08T11:20:59.645Z,78.83
2023-02-08T11:23:31.998Z,78.62
2023-02-08T11:26:37.386Z,78.97
2023-02-08T11:29:12.016Z,78.59
2023-02-08T11:31:40.625Z,78.42
2023-02-08T11:34:13.309Z,78.10
2023-02-08T11:36:47.154Z,77.94
2023-02-08T11:39:22.717Z,77.89
2023-02-08T11:41:51.564Z,77.77
2023-02-08T11:44:33.483Z,77.56
2023-02-08T11:47:01.932Z,77.45
2023-02-08T11:49:36.176Z,76.97
2023-02-08T11:52:02.911Z,76.39
2023-02-08T11:54:33.870Z,76.19
2023-02-08T11:57:13.430Z,75.97
2023-02-08T11:59:40.008Z,76.00
2023-02-08T12:02:36.711Z,75.73
2023-02-08T12:05:05.020Z,75.83
2023-02-08T12:07:49.604Z,75.27
2023-02-08T12:10:50.940Z,75.38
2023-02-08T12:13:28.084Z,75.47
2023-02-08T12:16:04.840Z,75.40
2023-02-08T12:18:44.397Z,74.98
2023-02-08T12:21:23.127Z,74.73
2023-02-08T12:23:58.535Z,74.75
2023-02-08T12:26:39.782Z,75.11
2023-02-08T12:29:08.812Z,74.97
2023-02-08T12:32:02.721Z,74.67
2023-02-08T12:34:41.582Z,74.37
2023-02-08T12:37:47.033Z,74.42
2023-02-08T12:40:41.154Z,74.05
2023-02-08T12:43:23.021Z,74.16
2023-02-08T12:46:21.880Z,74.45
2023-02-08T12:49:18.427Z,74.06
2023-02-08T12:52:13.172Z,73.20
2023-02-08T12:54:58.060Z,72.79
2023-02-08T12:57:25.946Z,72.72
2023-02-08T13:00:18.100Z,72.76
2023-02-08T13:02:57.282Z,72.67
2023-02-08T13:05:27.873Z,72.47
2023-02-08T13:08:03.729Z,72.08
2023-02-08T13:10:36.837Z,72.31
2023-02-08T13:13:14.536Z,72.28
2023-02-08T13:15:45.083Z,72.51
2023-02-08T13:18:19.032Z,72.77
2023-02-08T13:20:48.317Z,72.69
2023-02-08T13:23:20.772Z,72.65
2023-02-08T13:25:48.551Z,72.58
2023-02-08T13:28:19.628Z,72.85
2023-02-08T13:30:51.816Z,72.65
2023-02-08T13:33:31.248Z,72.56
2023-02-08T13:35:57.931Z,72.51
2023-02-08T13:38:31.067Z,72.68
2023-02-08T13:41:26.671Z,73.29
2023-02-08T13:44:04.206Z,72.86
2023-02-08T13:46:44.930Z,72.77
2023-02-08T13:49:44.796Z,72.90
2023-02-08T13:52:13.128Z,72.65
2023-02-08T13:54:39.638Z,72.92
2023-02-08T13:57:44.332Z,72.98
2023-02-08T14:00:23.298Z,72.95
2023-02-08T14:03:15.248Z,73.40
2023-02-08T14:05:41.936Z,73.39
2023-02-08T14:08:20.081Z,73.73
2023-02-08T14:10:52.012Z,73.92
2023-02-08T14:13:28.070Z,73.80
2023-02-08T14:16:32.902Z,73.99
2023-02-08T14:19:01.478Z,74.50
2023-02-08T14:21:32.591Z,75.22
2023-02-08T14:24:01.905Z,75.04
2023-02-08T14:26:28.843Z,74.52
2023-02-08T14:28:57.853Z,74.38
2023-02-08T14:31:36.397Z,74.04
2023-02-08T14:34:03.022Z,73.92
2023-02-08T14:36:32.523Z,73.73
2023-02-08T14:39:26.206Z,73.24
2023-02-08T14:41:54.685Z,72.91
2023-02-08T14:44:39.480Z,72.83
2023-02-08T14:47:36.877Z,73.07
2023-02-08T14:50:16.573Z,72.92
2023-02-08T14:52:54.324Z,72.86
2023-02-08T14:55:26.622Z,72.76
2023-02-08T14:57:58.358Z,73.05
2023-02-08T15:00:27.521Z,73.20
2023-02-08T15:02:54.602Z,72.91
2023-02-08T15:05:29.492Z,73.18
2023-02-08T15:07:58.042Z,73.08
2023-02-08T15:10:26.049Z,73.00
2023-02-08T15:12:54.569Z,73.43
2023-02-08T15:15:34.301Z,73.66
2023-02-08T15:18:02.460Z,73.40
2023-02-08T15:20:31.178Z,73.52
2023-02-08T15:23:01.392Z,73.88
2023-02-08T15:25:35.687Z,73.93
2023-02-08T15:28:14.441Z,74.28
2023-02-08T15:30:41.112Z,74.28
2023-02-08T15:33:09.857Z,74.31
2023-02-08T15:35:36.485Z,74.19
2023-02-08T15:38:06.951Z,74.02
2023-02-08T15:40:34.824Z,74.02
2023-02-08T15:43:07.232Z,74.45
2023-02-08T15:45:34.289Z,74.02
2023-02-08T15:48:01.548Z,74.49
2023-02-08T15:50:28.885Z,74.49
2023-02-08T15:52:59.652Z,74.67
2023-02-08T15:55:28.418Z,74.51
2023-02-08T15:58:00.570Z,74.89
2023-02-08T16:00:31.478Z,74.77
2023-02-08T16:03:09.783Z,75.00
2023-02-08T16:05:36.793Z,74.81
2023-02-08T16:08:03.626Z,74.76
2023-02-08T16:10:34.327Z,74.94
2023-02-08T16:13:03.871Z,75.25
2023-02-08T16:15:45.067Z,75.07
2023-02-08T16:18:33.092Z,75.87
2023-02-08T16:21:01.377Z,75.72
2023-02-08T16:23:30.076Z,75.15
2023-02-08T16:25:57.672Z,75.23
2023-02-08T16:28:33.308Z,75.19
2023-02-08T16:31:02.090Z,75.05
2023-02-08T16:33:29.466Z,75.27
2023-02-08T16:36:01.778Z,75.11
2023-02-08T16:38:36.253Z,75.26
2023-02-08T16:41:12.736Z,75.14
2023-02-08T16:43:47.842Z,75.15
2023-02-08T16:46:21.359Z,75.49
2023-02-08T16:48:55.861Z,75.23
2023-02-08T16:51:27.785Z,75.79
2023-02-08T16:54:02.556Z,75.49
2023-02-08T16:56:29.141Z,75.67
2023-02-08T16:58:55.542Z,75.47
2023-02-08T17:01:23.443Z,75.60
2023-02-08T17:03:50.234Z,75.52
2023-02-08T17:06:29.777Z,75.43
2023-02-08T17:08:57.153Z,75.45
2023-02-08T17:11:23.688Z,75.09
2023-02-08T17:13:52.097Z,75.15
2023-02-08T17:16:21.735Z,75.08
2023-02-08T17:18:48.613Z,75.26
2023-02-08T17:21:15.383Z,75.14
2023-02-08T17:23:42.925Z,75.32
2023-02-08T17:26:15.419Z,75.42
2023-02-08T17:28:42.907Z,75.31
2023-02-08T17:31:11.941Z,75.14
2023-02-08T17:33:40.188Z,75.43
2023-02-08T17:36:08.078Z,75.32
2023-02-08T17:38:38.923Z,75.22
2023-02-08T17:41:13.469Z,75.90
2023-02-08T17:43:39.916Z,75.23
2023-02-08T17:46:15.592Z,75.42
2023-02-08T17:48:42.170Z,75.54
2023-02-08T17:51:16.889Z,75.62
2023-02-08T17:53:43.862Z,75.73
2023-02-08T17:56:13.308Z,75.60
2023-02-08T17:58:40.853Z,75.58
2023-02-08T18:01:08.418Z,76.11
2023-02-08T18:03:34.943Z,76.09
2023-02-08T18:06:01.369Z,76.13
2023-02-08T18:08:27.958Z,76.13
2023-02-08T18:10:54.406Z,76.13
2023-02-08T18:13:20.952Z,76.27
2023-02-08T18:15:48.147Z,76.82
2023-02-08T18:18:15.456Z,76.49
2023-02-08T18:20:46.168Z,76.71
2023-02-08T18:23:13.248Z,76.45
2023-02-08T18:25:41.177Z,76.91
2023-02-08T18:28:07.887Z,76.70
2023-02-08T18:30:34.292Z,76.98
2023-02-08T18:33:00.702Z,76.94
2023-02-08T18:35:27.108Z,76.92
2023-02-08T18:37:53.710Z,77.16
2023-02-08T18:40:20.209Z,76.88
2023-02-08T18:42:46.650Z,77.37
2023-02-08T18:45:13.083Z,77.22
2023-02-08T18:47:39.740Z,77.18
2023-02-08T18:50:06.590Z,77.60
2023-02-08T18:52:33.976Z,77.18
2023-02-08T18:55:00.454Z,77.32
2023-02-08T18:57:26.938Z,77.46
2023-02-08T18:59:54.188Z,77.56
2023-02-08T19:02:22.614Z,77.50
2023-02-08T19:04:49.421Z,77.38
2023-02-08T19:07:16.306Z,77.48
2023-02-08T19:09:43.941Z,78.07
2023-02-08T19:12:10.457Z,77.94
2023-02-08T19:14:36.961Z,77.78
2023-02-08T19:17:03.527Z,78.31
2023-02-08T19:19:30.050Z,78.05
2023-02-08T19:21:56.475Z,78.11
2023-02-08T19:24:22.973Z,78.52
2023-02-08T19:26:49.513Z,78.13
2023-02-08T19:29:17.960Z,77.88
2023-02-08T19:31:44.996Z,77.78
2023-02-08T19:34:12.279Z,78.04
2023-02-08T19:36:42.312Z,77.96
2023-02-08T19:39:08.852Z,77.93
2023-02-08T19:41:37.756Z,77.56
2023-02-08T19:44:05.953Z,77.87
2023-02-08T19:46:34.611Z,77.25
2023-02-08T19:49:01.633Z,77.18
2023-02-08T19:51:30.319Z,76.75
2023-02-08T19:53:57.946Z,76.48
2023-02-08T19:56:24.373Z,76.21
2023-02-08T19:58:50.795Z,76.01
2023-02-08T20:01:22.173Z,75.72
2023-02-08T20:03:49.997Z,75.44
2023-02-08T20:06:19.217Z,75.05
2023-02-08T20:08:45.972Z,74.95
2023-02-08T20:11:21.411Z,75.18
2023-02-08T20:13:48.220Z,74.77
2023-02-08T20:16:14.910Z,74.78
2023-02-08T20:18:41.399Z,74.62
2023-02-08T20:21:08.186Z,74.52
2023-02-08T20:23:35.330Z,74.19
2023-02-08T20:26:10.749Z,74.13
2023-02-08T20:28:39.191Z,73.91
2023-02-08T20:31:10.605Z,74.62
2023-02-08T20:33:37.153Z,74.23
2023-02-08T20:36:09.450Z,73.98
2023-02-08T20:38:36.901Z,74.22
2023-02-08T20:41:05.126Z,74.14
2023-02-08T20:43:31.951Z,74.20
2023-02-08T20:45:58.392Z,74.12
2023-02-08T20:48:24.870Z,73.63
2023-02-08T20:50:51.281Z,73.95
2023-02-08T20:53:17.746Z,73.58
2023-02-08T20:55:44.505Z,73.50
2023-02-08T20:58:11.228Z,73.50
2023-02-08T21:00:42.334Z,73.35
2023-02-08T21:03:09.185Z,73.55
2023-02-08T21:05:35.609Z,73.38
2023-02-08T21:08:02.050Z,73.64
2023-02-08T21:10:28.485Z,73.25
2023-02-08T21:12:54.910Z,73.48
2023-02-08T21:15:21.528Z,73.22
2023-02-08T21:17:48.022Z,73.26
2023-02-08T21:20:15.091Z,73.66
2023-02-08T21:22:41.600Z,73.13
2023-02-08T21:25:09.330Z,73.41
2023-02-08T21:27:35.769Z,73.10
2023-02-08T21:30:02.265Z,73.15
2023-02-08T21:32:28.694Z,72.92
2023-02-08T21:34:55.104Z,73.14
2023-02-08T21:37:21.578Z,72.92
2023-02-08T21:39:48.008Z,73.11
2023-02-08T21:42:14.500Z,73.26
2023-02-08T21:44:41.017Z,72.71
2023-02-08T21:47:07.418Z,72.88
2023-02-08T21:49:52.574Z,72.96
2023-02-08T21:52:37.668Z,73.13
2023-02-08T21:55:04.184Z,73.41
2023-02-08T21:57:37.830Z,73.06
2023-02-08T22:00:08.041Z,73.03
2023-02-08T22:02:34.485Z,73.34
2023-02-08T22:05:02.241Z,73.04
2023-02-08T22:07:29.355Z,73.24
2023-02-08T22:12:40.189Z,73.14
2023-02-08T22:15:13.655Z,73.30
2023-02-08T22:17:40.081Z,73.00
2023-02-08T22:20:07.568Z,73.29
2023-02-08T22:22:34.154Z,73.28
2023-02-08T22:25:00.569Z,73.44
2023-02-08T22:27:27.656Z,73.68
2023-02-08T22:29:54.053Z,73.80
2023-02-08T22:32:20.583Z,74.08
2023-02-08T22:34:47.863Z,73.76
2023-02-08T22:37:15.321Z,73.97
2023-02-08T22:39:42.200Z,74.18
2023-02-08T22:42:13.263Z,74.19
2023-02-08T22:44:42.110Z,73.63
2023-02-08T22:47:09.623Z,73.74
2023-02-08T22:49:36.857Z,74.11
2023-02-08T22:52:05.500Z,74.19
2023-02-08T22:54:32.729Z,73.92
2023-02-08T22:56:59.158Z,73.71
2023-02-08T22:59:25.625Z,74.10
2023-02-08T23:01:52.080Z,73.85
2023-02-08T23:04:18.559Z,74.07
2023-02-08T23:06:44.983Z,73.94
2023-02-08T23:09:12.185Z,73.63
2023-02-08T23:11:38.705Z,74.10
2023-02-08T23:14:05.125Z,73.86
2023-02-08T23:16:32.565Z,73.99
2023-02-08T23:18:59.085Z,73.92
2023-02-08T23:21:25.543Z,73.86
2023-02-08T23:23:51.982Z,73.92
2023-02-08T23:26:20.075Z,73.53
2023-02-08T23:28:48.640Z,73.85
2023-02-08T23:31:15.190Z,74.00
2023-02-08T23:33:41.888Z,73.88
2023-02-08T23:36:11.193Z,73.71
2023-02-08T23:38:37.845Z,73.98
2023-02-08T23:41:05.725Z,73.75
2023-02-08T23:43:32.616Z,73.76
2023-02-08T23:45:59.370Z,73.80
2023-02-08T23:48:25.800Z,73.60
2023-02-08T23:50:59.478Z,73.46
2023-02-08T23:53:26.878Z,73.38
2023-02-08T23:56:14.436Z,73.75
2023-02-08T23:58:42.166Z,73.69
